sensor_id;sensor_type;location;lat;lon;timestamp;P1;durP1;ratioP1;P2;durP2;ratioP2
78148;SDS011;67396;42.664;23.382;2023-07-08T00:00:11;25.27;;;16.35;;
78148;SDS011;67396;42.664;23.382;2023-07-08T00:02:42;30.20;;;16.77;;
78148;SDS011;67396;42.664;23.382;2023-07-08T00:05:09;26.48;;;17.95;;
78148;SDS011;67396;42.664;23.382;2023-07-08T00:07:36;29.35;;;17.05;;
78148;SDS011;67396;42.664;23.382;2023-07-08T00:10:15;25.67;;;16.65;;
78148;SDS011;67396;42.664;23.382;2023-07-08T00:12:45;29.75;;;18.80;;
78148;SDS011;67396;42.664;23.382;2023-07-08T00:15:13;26.80;;;17.27;;
78148;SDS011;67396;42.664;23.382;2023-07-08T00:17:38;30.05;;;18.23;;
78148;SDS011;67396;42.664;23.382;2023-07-08T00:20:47;31.73;;;18.17;;
78148;SDS011;67396;42.664;23.382;2023-07-08T00:23:03;28.35;;;19.30;;
78148;SDS011;67396;42.664;23.382;2023-07-08T00:25:29;35.92;;;20.77;;
78148;SDS011;67396;42.664;23.382;2023-07-08T00:27:56;42.28;;;25.15;;
78148;SDS011;67396;42.664;23.382;2023-07-08T00:32:56;39.22;;;22.77;;
78148;SDS011;67396;42.664;23.382;2023-07-08T00:35:30;31.65;;;19.75;;
78148;SDS011;67396;42.664;23.382;2023-07-08T00:37:59;28.55;;;17.92;;
78148;SDS011;67396;42.664;23.382;2023-07-08T00:40:31;32.58;;;17.95;;
78148;SDS011;67396;42.664;23.382;2023-07-08T00:42:58;28.60;;;17.02;;
78148;SDS011;67396;42.664;23.382;2023-07-08T00:45:29;34.17;;;20.55;;
78148;SDS011;67396;42.664;23.382;2023-07-08T00:48:07;27.23;;;17.98;;
78148;SDS011;67396;42.664;23.382;2023-07-08T00:50:41;31.13;;;18.83;;
78148;SDS011;67396;42.664;23.382;2023-07-08T00:53:27;26.23;;;17.00;;
78148;SDS011;67396;42.664;23.382;2023-07-08T00:58:58;29.20;;;17.88;;
78148;SDS011;67396;42.664;23.382;2023-07-08T01:01:44;24.48;;;16.52;;
78148;SDS011;67396;42.664;23.382;2023-07-08T01:04:11;24.95;;;17.10;;
78148;SDS011;67396;42.664;23.382;2023-07-08T01:06:44;26.08;;;16.15;;
78148;SDS011;67396;42.664;23.382;2023-07-08T01:09:12;24.40;;;16.55;;
78148;SDS011;67396;42.664;23.382;2023-07-08T01:11:40;25.58;;;16.88;;
78148;SDS011;67396;42.664;23.382;2023-07-08T01:14:07;26.65;;;17.85;;
78148;SDS011;67396;42.664;23.382;2023-07-08T01:16:35;21.33;;;16.23;;
78148;SDS011;67396;42.664;23.382;2023-07-08T01:19:01;24.58;;;15.68;;
78148;SDS011;67396;42.664;23.382;2023-07-08T01:21:34;24.35;;;16.73;;
78148;SDS011;67396;42.664;23.382;2023-07-08T01:24:07;27.05;;;17.15;;
78148;SDS011;67396;42.664;23.382;2023-07-08T01:26:35;26.25;;;16.15;;
78148;SDS011;67396;42.664;23.382;2023-07-08T01:29:04;26.83;;;16.65;;
78148;SDS011;67396;42.664;23.382;2023-07-08T01:31:32;26.33;;;17.05;;
78148;SDS011;67396;42.664;23.382;2023-07-08T01:33:58;24.10;;;16.05;;
78148;SDS011;67396;42.664;23.382;2023-07-08T01:36:23;22.52;;;16.60;;
78148;SDS011;67396;42.664;23.382;2023-07-08T01:38:49;22.45;;;15.73;;
78148;SDS011;67396;42.664;23.382;2023-07-08T01:41:15;26.48;;;14.73;;
78148;SDS011;67396;42.664;23.382;2023-07-08T01:43:42;26.25;;;18.13;;
78148;SDS011;67396;42.664;23.382;2023-07-08T01:46:11;23.13;;;16.20;;
78148;SDS011;67396;42.664;23.382;2023-07-08T01:48:41;28.52;;;18.40;;
78148;SDS011;67396;42.664;23.382;2023-07-08T01:51:11;26.80;;;17.10;;
78148;SDS011;67396;42.664;23.382;2023-07-08T01:53:38;25.38;;;17.42;;
78148;SDS011;67396;42.664;23.382;2023-07-08T01:56:08;26.85;;;16.05;;
78148;SDS011;67396;42.664;23.382;2023-07-08T01:58:34;24.67;;;17.58;;
78148;SDS011;67396;42.664;23.382;2023-07-08T02:01:00;25.05;;;18.13;;
78148;SDS011;67396;42.664;23.382;2023-07-08T02:03:26;27.35;;;17.17;;
78148;SDS011;67396;42.664;23.382;2023-07-08T02:05:52;27.83;;;17.65;;
78148;SDS011;67396;42.664;23.382;2023-07-08T02:08:18;29.13;;;17.35;;
78148;SDS011;67396;42.664;23.382;2023-07-08T02:10:48;27.60;;;16.88;;
78148;SDS011;67396;42.664;23.382;2023-07-08T02:13:16;22.17;;;16.10;;
78148;SDS011;67396;42.664;23.382;2023-07-08T02:15:42;25.73;;;15.95;;
78148;SDS011;67396;42.664;23.382;2023-07-08T02:18:07;26.67;;;17.17;;
78148;SDS011;67396;42.664;23.382;2023-07-08T02:20:32;24.08;;;15.90;;
78148;SDS011;67396;42.664;23.382;2023-07-08T02:22:58;23.65;;;16.20;;
78148;SDS011;67396;42.664;23.382;2023-07-08T02:25:23;29.02;;;16.25;;
78148;SDS011;67396;42.664;23.382;2023-07-08T02:27:49;23.35;;;14.63;;
78148;SDS011;67396;42.664;23.382;2023-07-08T02:30:14;26.15;;;14.50;;
78148;SDS011;67396;42.664;23.382;2023-07-08T02:32:41;22.50;;;13.82;;
78148;SDS011;67396;42.664;23.382;2023-07-08T02:35:07;24.27;;;15.48;;
78148;SDS011;67396;42.664;23.382;2023-07-08T02:37:33;23.10;;;15.73;;
78148;SDS011;67396;42.664;23.382;2023-07-08T02:39:59;28.98;;;16.05;;
78148;SDS011;67396;42.664;23.382;2023-07-08T02:42:25;21.90;;;14.77;;
78148;SDS011;67396;42.664;23.382;2023-07-08T02:44:51;21.45;;;15.68;;
78148;SDS011;67396;42.664;23.382;2023-07-08T02:47:16;24.38;;;14.13;;
78148;SDS011;67396;42.664;23.382;2023-07-08T02:49:42;22.10;;;14.80;;
78148;SDS011;67396;42.664;23.382;2023-07-08T02:52:07;21.40;;;14.85;;
78148;SDS011;67396;42.664;23.382;2023-07-08T02:54:33;22.00;;;14.85;;
78148;SDS011;67396;42.664;23.382;2023-07-08T02:56:58;23.08;;;15.10;;
78148;SDS011;67396;42.664;23.382;2023-07-08T02:59:25;22.70;;;15.02;;
78148;SDS011;67396;42.664;23.382;2023-07-08T03:01:50;26.67;;;15.65;;
78148;SDS011;67396;42.664;23.382;2023-07-08T03:04:16;22.38;;;15.02;;
78148;SDS011;67396;42.664;23.382;2023-07-08T03:06:43;22.73;;;14.57;;
78148;SDS011;67396;42.664;23.382;2023-07-08T03:09:10;24.10;;;15.90;;
78148;SDS011;67396;42.664;23.382;2023-07-08T03:11:39;28.85;;;14.90;;
78148;SDS011;67396;42.664;23.382;2023-07-08T03:14:05;21.65;;;15.18;;
78148;SDS011;67396;42.664;23.382;2023-07-08T03:16:31;20.40;;;14.98;;
78148;SDS011;67396;42.664;23.382;2023-07-08T03:18:57;24.40;;;15.32;;
78148;SDS011;67396;42.664;23.382;2023-07-08T03:21:22;22.40;;;15.90;;
78148;SDS011;67396;42.664;23.382;2023-07-08T03:23:49;26.77;;;16.15;;
78148;SDS011;67396;42.664;23.382;2023-07-08T03:26:16;25.88;;;17.33;;
78148;SDS011;67396;42.664;23.382;2023-07-08T03:29:01;23.92;;;15.90;;
78148;SDS011;67396;42.664;23.382;2023-07-08T03:31:27;21.85;;;15.60;;
78148;SDS011;67396;42.664;23.382;2023-07-08T03:33:53;23.75;;;14.75;;
78148;SDS011;67396;42.664;23.382;2023-07-08T03:36:18;24.67;;;14.93;;
78148;SDS011;67396;42.664;23.382;2023-07-08T03:38:48;20.33;;;14.30;;
78148;SDS011;67396;42.664;23.382;2023-07-08T03:41:15;22.63;;;13.40;;
78148;SDS011;67396;42.664;23.382;2023-07-08T03:43:40;18.00;;;12.48;;
78148;SDS011;67396;42.664;23.382;2023-07-08T03:46:07;22.23;;;13.93;;
78148;SDS011;67396;42.664;23.382;2023-07-08T03:48:35;17.42;;;12.07;;
78148;SDS011;67396;42.664;23.382;2023-07-08T03:51:00;18.38;;;12.38;;
78148;SDS011;67396;42.664;23.382;2023-07-08T03:53:26;20.73;;;11.85;;
78148;SDS011;67396;42.664;23.382;2023-07-08T03:55:51;18.98;;;13.75;;
78148;SDS011;67396;42.664;23.382;2023-07-08T03:58:17;19.35;;;12.18;;
78148;SDS011;67396;42.664;23.382;2023-07-08T04:00:42;17.98;;;12.48;;
78148;SDS011;67396;42.664;23.382;2023-07-08T04:03:09;20.73;;;12.77;;
78148;SDS011;67396;42.664;23.382;2023-07-08T04:05:36;15.02;;;11.23;;
78148;SDS011;67396;42.664;23.382;2023-07-08T04:08:01;15.45;;;11.05;;
78148;SDS011;67396;42.664;23.382;2023-07-08T04:10:27;15.43;;;10.63;;
78148;SDS011;67396;42.664;23.382;2023-07-08T04:12:52;16.58;;;12.13;;
78148;SDS011;67396;42.664;23.382;2023-07-08T04:15:18;16.70;;;10.40;;
78148;SDS011;67396;42.664;23.382;2023-07-08T04:17:45;16.20;;;11.10;;
78148;SDS011;67396;42.664;23.382;2023-07-08T04:20:14;14.93;;;11.25;;
78148;SDS011;67396;42.664;23.382;2023-07-08T04:22:40;17.70;;;10.23;;
78148;SDS011;67396;42.664;23.382;2023-07-08T04:25:06;16.67;;;10.35;;
78148;SDS011;67396;42.664;23.382;2023-07-08T04:27:32;14.45;;;10.35;;
78148;SDS011;67396;42.664;23.382;2023-07-08T04:29:57;19.67;;;11.30;;
78148;SDS011;67396;42.664;23.382;2023-07-08T04:32:23;16.70;;;10.82;;
78148;SDS011;67396;42.664;23.382;2023-07-08T04:34:50;16.10;;;10.05;;
78148;SDS011;67396;42.664;23.382;2023-07-08T04:37:16;15.18;;;10.88;;
78148;SDS011;67396;42.664;23.382;2023-07-08T04:39:42;17.08;;;10.57;;
78148;SDS011;67396;42.664;23.382;2023-07-08T04:42:07;17.45;;;10.73;;
78148;SDS011;67396;42.664;23.382;2023-07-08T04:44:33;16.88;;;11.65;;
78148;SDS011;67396;42.664;23.382;2023-07-08T04:46:58;15.13;;;10.73;;
78148;SDS011;67396;42.664;23.382;2023-07-08T04:49:24;18.65;;;11.18;;
78148;SDS011;67396;42.664;23.382;2023-07-08T04:51:56;17.05;;;11.23;;
78148;SDS011;67396;42.664;23.382;2023-07-08T04:54:23;13.75;;;10.38;;
78148;SDS011;67396;42.664;23.382;2023-07-08T04:56:49;21.42;;;12.00;;
78148;SDS011;67396;42.664;23.382;2023-07-08T04:59:16;16.38;;;11.32;;
78148;SDS011;67396;42.664;23.382;2023-07-08T05:01:43;16.95;;;11.73;;
78148;SDS011;67396;42.664;23.382;2023-07-08T05:04:13;16.65;;;11.48;;
78148;SDS011;67396;42.664;23.382;2023-07-08T05:06:40;18.85;;;11.93;;
78148;SDS011;67396;42.664;23.382;2023-07-08T05:09:06;18.20;;;12.30;;
78148;SDS011;67396;42.664;23.382;2023-07-08T05:11:33;18.13;;;11.75;;
78148;SDS011;67396;42.664;23.382;2023-07-08T05:13:59;15.48;;;11.20;;
78148;SDS011;67396;42.664;23.382;2023-07-08T05:16:25;17.17;;;11.55;;
78148;SDS011;67396;42.664;23.382;2023-07-08T05:18:50;15.98;;;10.57;;
78148;SDS011;67396;42.664;23.382;2023-07-08T05:21:16;15.90;;;11.35;;
78148;SDS011;67396;42.664;23.382;2023-07-08T05:23:44;16.10;;;10.75;;
78148;SDS011;67396;42.664;23.382;2023-07-08T05:26:09;15.07;;;10.73;;
78148;SDS011;67396;42.664;23.382;2023-07-08T05:28:36;13.30;;;9.90;;
78148;SDS011;67396;42.664;23.382;2023-07-08T05:31:01;14.65;;;10.50;;
78148;SDS011;67396;42.664;23.382;2023-07-08T05:33:29;11.73;;;9.40;;
78148;SDS011;67396;42.664;23.382;2023-07-08T05:35:57;15.43;;;10.45;;
78148;SDS011;67396;42.664;23.382;2023-07-08T05:38:23;15.32;;;10.13;;
78148;SDS011;67396;42.664;23.382;2023-07-08T05:40:51;14.63;;;10.73;;
78148;SDS011;67396;42.664;23.382;2023-07-08T05:43:19;11.75;;;9.18;;
78148;SDS011;67396;42.664;23.382;2023-07-08T05:45:45;13.80;;;9.32;;
78148;SDS011;67396;42.664;23.382;2023-07-08T05:48:10;14.23;;;10.73;;
78148;SDS011;67396;42.664;23.382;2023-07-08T05:50:36;13.52;;;9.07;;
78148;SDS011;67396;42.664;23.382;2023-07-08T05:53:02;22.00;;;10.00;;
78148;SDS011;67396;42.664;23.382;2023-07-08T05:55:28;18.17;;;9.68;;
78148;SDS011;67396;42.664;23.382;2023-07-08T05:57:53;15.55;;;9.82;;
78148;SDS011;67396;42.664;23.382;2023-07-08T06:00:19;17.30;;;10.38;;
78148;SDS011;67396;42.664;23.382;2023-07-08T06:02:47;17.80;;;10.07;;
78148;SDS011;67396;42.664;23.382;2023-07-08T06:05:13;17.65;;;9.82;;
78148;SDS011;67396;42.664;23.382;2023-07-08T06:07:46;16.80;;;10.48;;
78148;SDS011;67396;42.664;23.382;2023-07-08T06:10:13;18.25;;;10.15;;
78148;SDS011;67396;42.664;23.382;2023-07-08T06:12:41;15.52;;;10.98;;
78148;SDS011;67396;42.664;23.382;2023-07-08T06:15:15;17.65;;;11.13;;
78148;SDS011;67396;42.664;23.382;2023-07-08T06:17:41;19.45;;;10.40;;
78148;SDS011;67396;42.664;23.382;2023-07-08T06:20:07;17.80;;;10.68;;
78148;SDS011;67396;42.664;23.382;2023-07-08T06:22:32;13.63;;;9.52;;
78148;SDS011;67396;42.664;23.382;2023-07-08T06:24:58;15.63;;;11.02;;
78148;SDS011;67396;42.664;23.382;2023-07-08T06:27:23;14.95;;;11.07;;
78148;SDS011;67396;42.664;23.382;2023-07-08T06:29:50;18.05;;;10.63;;
78148;SDS011;67396;42.664;23.382;2023-07-08T06:32:19;14.88;;;11.27;;
78148;SDS011;67396;42.664;23.382;2023-07-08T06:34:44;14.23;;;10.07;;
78148;SDS011;67396;42.664;23.382;2023-07-08T06:37:10;13.85;;;9.55;;
78148;SDS011;67396;42.664;23.382;2023-07-08T06:39:35;14.93;;;9.80;;
78148;SDS011;67396;42.664;23.382;2023-07-08T06:42:01;14.18;;;8.77;;
78148;SDS011;67396;42.664;23.382;2023-07-08T06:44:27;27.45;;;11.07;;
78148;SDS011;67396;42.664;23.382;2023-07-08T06:46:52;15.75;;;9.18;;
78148;SDS011;67396;42.664;23.382;2023-07-08T06:49:18;14.45;;;9.55;;
78148;SDS011;67396;42.664;23.382;2023-07-08T06:51:43;16.13;;;9.48;;
78148;SDS011;67396;42.664;23.382;2023-07-08T06:54:10;13.95;;;8.90;;
78148;SDS011;67396;42.664;23.382;2023-07-08T06:56:39;18.95;;;10.88;;
78148;SDS011;67396;42.664;23.382;2023-07-08T06:59:06;17.13;;;9.63;;
78148;SDS011;67396;42.664;23.382;2023-07-08T07:01:32;16.10;;;8.50;;
78148;SDS011;67396;42.664;23.382;2023-07-08T07:03:58;11.52;;;7.93;;
78148;SDS011;67396;42.664;23.382;2023-07-08T07:06:24;11.43;;;8.07;;
78148;SDS011;67396;42.664;23.382;2023-07-08T07:08:50;14.25;;;8.27;;
78148;SDS011;67396;42.664;23.382;2023-07-08T07:11:15;20.20;;;9.82;;
78148;SDS011;67396;42.664;23.382;2023-07-08T07:13:41;26.50;;;11.35;;
78148;SDS011;67396;42.664;23.382;2023-07-08T07:16:06;16.92;;;11.15;;
78148;SDS011;67396;42.664;23.382;2023-07-08T07:18:32;14.77;;;9.13;;
78148;SDS011;67396;42.664;23.382;2023-07-08T07:20:58;15.07;;;9.13;;
78148;SDS011;67396;42.664;23.382;2023-07-08T07:23:23;17.88;;;10.05;;
78148;SDS011;67396;42.664;23.382;2023-07-08T07:25:49;13.77;;;8.45;;
78148;SDS011;67396;42.664;23.382;2023-07-08T07:28:16;13.98;;;9.27;;
78148;SDS011;67396;42.664;23.382;2023-07-08T07:30:42;14.63;;;9.40;;
78148;SDS011;67396;42.664;23.382;2023-07-08T07:33:11;13.73;;;8.73;;
78148;SDS011;67396;42.664;23.382;2023-07-08T07:35:43;15.80;;;8.48;;
78148;SDS011;67396;42.664;23.382;2023-07-08T07:38:10;15.15;;;9.27;;
78148;SDS011;67396;42.664;23.382;2023-07-08T07:40:35;18.45;;;10.10;;
78148;SDS011;67396;42.664;23.382;2023-07-08T07:43:01;14.05;;;8.98;;
78148;SDS011;67396;42.664;23.382;2023-07-08T07:45:26;14.63;;;9.45;;
78148;SDS011;67396;42.664;23.382;2023-07-08T07:47:52;12.02;;;8.52;;
78148;SDS011;67396;42.664;23.382;2023-07-08T07:50:17;16.00;;;8.75;;
78148;SDS011;67396;42.664;23.382;2023-07-08T07:52:43;17.27;;;8.85;;
78148;SDS011;67396;42.664;23.382;2023-07-08T07:55:08;10.20;;;7.82;;
78148;SDS011;67396;42.664;23.382;2023-07-08T07:57:34;17.15;;;8.57;;
78148;SDS011;67396;42.664;23.382;2023-07-08T07:59:59;12.80;;;9.15;;
78148;SDS011;67396;42.664;23.382;2023-07-08T08:02:25;14.20;;;9.05;;
78148;SDS011;67396;42.664;23.382;2023-07-08T08:04:50;12.88;;;8.48;;
78148;SDS011;67396;42.664;23.382;2023-07-08T08:07:16;12.45;;;8.70;;
78148;SDS011;67396;42.664;23.382;2023-07-08T08:09:42;14.15;;;8.75;;
78148;SDS011;67396;42.664;23.382;2023-07-08T08:12:08;11.35;;;7.65;;
78148;SDS011;67396;42.664;23.382;2023-07-08T08:14:36;13.48;;;8.55;;
78148;SDS011;67396;42.664;23.382;2023-07-08T08:17:01;12.65;;;9.30;;
78148;SDS011;67396;42.664;23.382;2023-07-08T08:19:27;15.02;;;8.18;;
78148;SDS011;67396;42.664;23.382;2023-07-08T08:21:54;15.25;;;9.20;;
78148;SDS011;67396;42.664;23.382;2023-07-08T08:24:19;12.80;;;8.48;;
78148;SDS011;67396;42.664;23.382;2023-07-08T08:26:45;12.65;;;9.82;;
78148;SDS011;67396;42.664;23.382;2023-07-08T08:29:10;12.30;;;8.63;;
78148;SDS011;67396;42.664;23.382;2023-07-08T08:31:36;11.65;;;8.38;;
78148;SDS011;67396;42.664;23.382;2023-07-08T08:34:01;12.00;;;8.48;;
78148;SDS011;67396;42.664;23.382;2023-07-08T08:36:27;12.88;;;8.63;;
78148;SDS011;67396;42.664;23.382;2023-07-08T08:38:52;14.70;;;9.23;;
78148;SDS011;67396;42.664;23.382;2023-07-08T08:41:19;11.88;;;8.02;;
78148;SDS011;67396;42.664;23.382;2023-07-08T08:43:51;16.48;;;8.80;;
78148;SDS011;67396;42.664;23.382;2023-07-08T08:49:54;14.75;;;10.07;;
78148;SDS011;67396;42.664;23.382;2023-07-08T08:52:04;13.05;;;9.23;;
78148;SDS011;67396;42.664;23.382;2023-07-08T08:54:31;12.30;;;7.75;;
78148;SDS011;67396;42.664;23.382;2023-07-08T08:57:06;12.68;;;7.75;;
78148;SDS011;67396;42.664;23.382;2023-07-08T09:02:07;11.77;;;8.27;;
78148;SDS011;67396;42.664;23.382;2023-07-08T09:04:48;11.13;;;8.80;;
78148;SDS011;67396;42.664;23.382;2023-07-08T09:07:14;13.45;;;8.23;;
78148;SDS011;67396;42.664;23.382;2023-07-08T09:09:46;17.38;;;9.05;;
78148;SDS011;67396;42.664;23.382;2023-07-08T09:12:18;16.08;;;9.02;;
78148;SDS011;67396;42.664;23.382;2023-07-08T09:14:49;16.13;;;8.45;;
78148;SDS011;67396;42.664;23.382;2023-07-08T09:17:29;9.80;;;7.32;;
78148;SDS011;67396;42.664;23.382;2023-07-08T09:22:52;13.13;;;8.23;;
78148;SDS011;67396;42.664;23.382;2023-07-08T09:25:43;13.55;;;8.82;;
78148;SDS011;67396;42.664;23.382;2023-07-08T09:28:12;11.68;;;7.60;;
78148;SDS011;67396;42.664;23.382;2023-07-08T09:30:39;12.00;;;8.25;;
78148;SDS011;67396;42.664;23.382;2023-07-08T09:33:06;19.15;;;9.05;;
78148;SDS011;67396;42.664;23.382;2023-07-08T09:35:40;16.83;;;8.35;;
78148;SDS011;67396;42.664;23.382;2023-07-08T09:38:14;12.05;;;8.93;;
78148;SDS011;67396;42.664;23.382;2023-07-08T09:45:55;13.32;;;8.43;;
78148;SDS011;67396;42.664;23.382;2023-07-08T09:48:24;10.27;;;7.38;;
78148;SDS011;67396;42.664;23.382;2023-07-08T09:50:52;9.40;;;6.72;;
78148;SDS011;67396;42.664;23.382;2023-07-08T09:53:19;11.80;;;7.57;;
78148;SDS011;67396;42.664;23.382;2023-07-08T09:55:45;12.32;;;6.88;;
78148;SDS011;67396;42.664;23.382;2023-07-08T09:58:12;9.80;;;7.07;;
78148;SDS011;67396;42.664;23.382;2023-07-08T10:00:44;18.27;;;9.30;;
78148;SDS011;67396;42.664;23.382;2023-07-08T10:03:19;10.98;;;7.85;;
78148;SDS011;67396;42.664;23.382;2023-07-08T10:05:46;11.98;;;7.72;;
78148;SDS011;67396;42.664;23.382;2023-07-08T10:08:17;11.63;;;8.32;;
78148;SDS011;67396;42.664;23.382;2023-07-08T10:10:46;14.05;;;7.80;;
78148;SDS011;67396;42.664;23.382;2023-07-08T10:15:55;13.40;;;7.20;;
78148;SDS011;67396;42.664;23.382;2023-07-08T10:18:29;8.90;;;6.75;;
78148;SDS011;67396;42.664;23.382;2023-07-08T10:26:27;12.50;;;6.43;;
78148;SDS011;67396;42.664;23.382;2023-07-08T10:42:45;9.15;;;6.45;;
78148;SDS011;67396;42.664;23.382;2023-07-08T10:45:46;8.57;;;6.00;;
78148;SDS011;67396;42.664;23.382;2023-07-08T10:48:40;9.57;;;6.25;;
78148;SDS011;67396;42.664;23.382;2023-07-08T10:51:40;10.75;;;7.13;;
78148;SDS011;67396;42.664;23.382;2023-07-08T11:00:38;14.82;;;7.45;;
78148;SDS011;67396;42.664;23.382;2023-07-08T11:13:15;10.60;;;6.25;;
78148;SDS011;67396;42.664;23.382;2023-07-08T11:15:47;8.40;;;6.40;;
78148;SDS011;67396;42.664;23.382;2023-07-08T11:29:21;12.27;;;6.50;;
78148;SDS011;67396;42.664;23.382;2023-07-08T11:31:54;8.70;;;6.10;;
78148;SDS011;67396;42.664;23.382;2023-07-08T11:34:20;10.82;;;5.60;;
78148;SDS011;67396;42.664;23.382;2023-07-08T11:36:48;8.35;;;5.93;;
78148;SDS011;67396;42.664;23.382;2023-07-08T11:39:31;7.68;;;5.63;;
78148;SDS011;67396;42.664;23.382;2023-07-08T11:42:14;11.25;;;5.88;;
78148;SDS011;67396;42.664;23.382;2023-07-08T11:45:21;7.95;;;5.70;;
78148;SDS011;67396;42.664;23.382;2023-07-08T11:47:51;8.88;;;6.55;;
78148;SDS011;67396;42.664;23.382;2023-07-08T11:50:24;9.45;;;6.03;;
78148;SDS011;67396;42.664;23.382;2023-07-08T11:55:27;10.98;;;6.43;;
78148;SDS011;67396;42.664;23.382;2023-07-08T11:58:07;8.50;;;6.20;;
78148;SDS011;67396;42.664;23.382;2023-07-08T12:00:44;9.18;;;6.50;;
78148;SDS011;67396;42.664;23.382;2023-07-08T12:03:20;9.15;;;6.38;;
78148;SDS011;67396;42.664;23.382;2023-07-08T12:05:47;9.93;;;6.20;;
78148;SDS011;67396;42.664;23.382;2023-07-08T12:08:13;9.05;;;5.45;;
78148;SDS011;67396;42.664;23.382;2023-07-08T12:10:41;9.85;;;6.03;;
78148;SDS011;67396;42.664;23.382;2023-07-08T12:13:14;10.60;;;6.65;;
78148;SDS011;67396;42.664;23.382;2023-07-08T12:15:41;11.23;;;5.28;;
78148;SDS011;67396;42.664;23.382;2023-07-08T12:18:11;9.00;;;5.55;;
78148;SDS011;67396;42.664;23.382;2023-07-08T12:20:39;12.13;;;5.88;;
78148;SDS011;67396;42.664;23.382;2023-07-08T12:23:11;11.00;;;5.70;;
78148;SDS011;67396;42.664;23.382;2023-07-08T12:25:38;11.32;;;6.03;;
78148;SDS011;67396;42.664;23.382;2023-07-08T12:28:04;8.93;;;5.25;;
78148;SDS011;67396;42.664;23.382;2023-07-08T12:30:30;9.90;;;5.38;;
78148;SDS011;67396;42.664;23.382;2023-07-08T12:32:57;9.25;;;5.97;;
78148;SDS011;67396;42.664;23.382;2023-07-08T12:35:25;7.10;;;4.93;;
78148;SDS011;67396;42.664;23.382;2023-07-08T12:37:53;7.95;;;4.85;;
78148;SDS011;67396;42.664;23.382;2023-07-08T12:40:22;7.68;;;5.25;;
78148;SDS011;67396;42.664;23.382;2023-07-08T12:42:48;9.40;;;5.28;;
78148;SDS011;67396;42.664;23.382;2023-07-08T12:45:15;7.18;;;5.47;;
78148;SDS011;67396;42.664;23.382;2023-07-08T12:47:42;10.55;;;5.47;;
78148;SDS011;67396;42.664;23.382;2023-07-08T12:50:10;7.68;;;5.18;;
78148;SDS011;67396;42.664;23.382;2023-07-08T12:52:36;10.30;;;4.63;;
78148;SDS011;67396;42.664;23.382;2023-07-08T12:55:01;6.32;;;4.50;;
78148;SDS011;67396;42.664;23.382;2023-07-08T12:57:27;7.88;;;4.85;;
78148;SDS011;67396;42.664;23.382;2023-07-08T12:59:53;7.10;;;4.50;;
78148;SDS011;67396;42.664;23.382;2023-07-08T13:02:19;8.18;;;4.88;;
78148;SDS011;67396;42.664;23.382;2023-07-08T13:04:51;8.23;;;5.20;;
78148;SDS011;67396;42.664;23.382;2023-07-08T13:07:39;8.13;;;5.00;;
78148;SDS011;67396;42.664;23.382;2023-07-08T13:10:06;5.90;;;4.38;;
78148;SDS011;67396;42.664;23.382;2023-07-08T13:12:37;9.10;;;4.57;;
78148;SDS011;67396;42.664;23.382;2023-07-08T13:15:05;7.15;;;4.15;;
78148;SDS011;67396;42.664;23.382;2023-07-08T13:17:37;9.00;;;4.85;;
78148;SDS011;67396;42.664;23.382;2023-07-08T13:20:07;12.95;;;5.25;;
78148;SDS011;67396;42.664;23.382;2023-07-08T13:22:39;8.77;;;5.75;;
78148;SDS011;67396;42.664;23.382;2023-07-08T13:25:09;8.25;;;5.18;;
78148;SDS011;67396;42.664;23.382;2023-07-08T13:27:39;8.35;;;4.65;;
78148;SDS011;67396;42.664;23.382;2023-07-08T13:30:10;12.20;;;6.55;;
78148;SDS011;67396;42.664;23.382;2023-07-08T13:32:43;10.38;;;5.10;;
78148;SDS011;67396;42.664;23.382;2023-07-08T13:38:20;5.78;;;4.18;;
78148;SDS011;67396;42.664;23.382;2023-07-08T13:41:02;7.28;;;4.25;;
78148;SDS011;67396;42.664;23.382;2023-07-08T13:43:30;5.68;;;4.05;;
78148;SDS011;67396;42.664;23.382;2023-07-08T13:45:58;7.50;;;4.85;;
78148;SDS011;67396;42.664;23.382;2023-07-08T13:48:29;9.90;;;3.97;;
78148;SDS011;67396;42.664;23.382;2023-07-08T13:51:08;5.35;;;3.50;;
78148;SDS011;67396;42.664;23.382;2023-07-08T13:56:10;6.20;;;3.78;;
78148;SDS011;67396;42.664;23.382;2023-07-08T13:58:49;9.80;;;5.68;;
78148;SDS011;67396;42.664;23.382;2023-07-08T14:01:20;9.48;;;5.25;;
78148;SDS011;67396;42.664;23.382;2023-07-08T14:03:48;11.05;;;6.10;;
78148;SDS011;67396;42.664;23.382;2023-07-08T14:06:16;10.18;;;5.40;;
78148;SDS011;67396;42.664;23.382;2023-07-08T14:08:54;8.07;;;4.60;;
78148;SDS011;67396;42.664;23.382;2023-07-08T14:11:22;6.90;;;4.05;;
78148;SDS011;67396;42.664;23.382;2023-07-08T14:13:48;9.27;;;3.90;;
78148;SDS011;67396;42.664;23.382;2023-07-08T14:16:36;8.45;;;4.20;;
78148;SDS011;67396;42.664;23.382;2023-07-08T14:19:03;7.00;;;4.03;;
78148;SDS011;67396;42.664;23.382;2023-07-08T14:21:33;7.35;;;4.78;;
78148;SDS011;67396;42.664;23.382;2023-07-08T14:24:00;10.07;;;5.03;;
78148;SDS011;67396;42.664;23.382;2023-07-08T14:26:27;7.53;;;4.20;;
78148;SDS011;67396;42.664;23.382;2023-07-08T14:28:54;8.68;;;4.28;;
78148;SDS011;67396;42.664;23.382;2023-07-08T14:31:21;10.18;;;5.03;;
78148;SDS011;67396;42.664;23.382;2023-07-08T14:33:49;9.43;;;4.32;;
78148;SDS011;67396;42.664;23.382;2023-07-08T14:36:21;9.25;;;4.40;;
78148;SDS011;67396;42.664;23.382;2023-07-08T14:38:46;7.25;;;4.88;;
78148;SDS011;67396;42.664;23.382;2023-07-08T14:41:12;5.63;;;3.45;;
78148;SDS011;67396;42.664;23.382;2023-07-08T14:43:37;10.77;;;4.10;;
78148;SDS011;67396;42.664;23.382;2023-07-08T14:46:05;10.05;;;4.53;;
78148;SDS011;67396;42.664;23.382;2023-07-08T14:48:35;18.70;;;11.02;;
78148;SDS011;67396;42.664;23.382;2023-07-08T14:51:01;11.25;;;5.28;;
78148;SDS011;67396;42.664;23.382;2023-07-08T14:53:26;11.75;;;5.82;;
78148;SDS011;67396;42.664;23.382;2023-07-08T14:55:53;11.80;;;7.22;;
78148;SDS011;67396;42.664;23.382;2023-07-08T14:58:24;9.70;;;5.05;;
78148;SDS011;67396;42.664;23.382;2023-07-08T15:00:56;9.18;;;5.10;;
78148;SDS011;67396;42.664;23.382;2023-07-08T15:03:24;6.53;;;4.25;;
78148;SDS011;67396;42.664;23.382;2023-07-08T15:05:50;7.68;;;4.13;;
78148;SDS011;67396;42.664;23.382;2023-07-08T15:08:15;7.50;;;4.57;;
78148;SDS011;67396;42.664;23.382;2023-07-08T15:10:47;11.05;;;5.13;;
78148;SDS011;67396;42.664;23.382;2023-07-08T15:13:14;7.00;;;4.20;;
78148;SDS011;67396;42.664;23.382;2023-07-08T15:15:42;7.32;;;4.85;;
78148;SDS011;67396;42.664;23.382;2023-07-08T15:18:12;9.13;;;4.97;;
78148;SDS011;67396;42.664;23.382;2023-07-08T15:20:39;10.90;;;4.72;;
78148;SDS011;67396;42.664;23.382;2023-07-08T15:23:06;8.13;;;4.38;;
78148;SDS011;67396;42.664;23.382;2023-07-08T15:25:33;8.55;;;4.53;;
78148;SDS011;67396;42.664;23.382;2023-07-08T15:28:04;8.57;;;4.18;;
78148;SDS011;67396;42.664;23.382;2023-07-08T15:30:30;7.35;;;5.00;;
78148;SDS011;67396;42.664;23.382;2023-07-08T15:32:56;10.27;;;5.75;;
78148;SDS011;67396;42.664;23.382;2023-07-08T15:35:27;11.65;;;5.10;;
78148;SDS011;67396;42.664;23.382;2023-07-08T15:38:03;11.88;;;6.05;;
78148;SDS011;67396;42.664;23.382;2023-07-08T15:40:37;6.68;;;3.95;;
78148;SDS011;67396;42.664;23.382;2023-07-08T15:43:03;13.13;;;5.72;;